createdAt,value
2019-03-25T00:02:12.583Z,4.73
2019-03-25T00:04:41.856Z,5.07
2019-03-25T00:07:10.418Z,5.13
2019-03-25T00:09:38.990Z,5.40
2019-03-25T00:12:07.585Z,4.80
2019-03-25T00:14:36.158Z,3.90
2019-03-25T00:17:05.156Z,5.00
2019-03-25T00:19:33.775Z,4.53
2019-03-25T00:22:02.358Z,5.40
2019-03-25T00:24:38.589Z,4.13
2019-03-25T00:27:01.543Z,4.93
2019-03-25T00:29:30.116Z,3.83
2019-03-25T00:31:58.681Z,4.67
2019-03-25T00:34:27.451Z,5.10
2019-03-25T00:36:56.035Z,5.13
2019-03-25T00:39:24.618Z,4.63
2019-03-25T00:41:53.302Z,4.40
2019-03-25T00:44:21.865Z,4.53
2019-03-25T00:46:50.470Z,5.30
2019-03-25T00:49:19.076Z,4.17
2019-03-25T00:51:47.640Z,5.30
2019-03-25T00:54:16.219Z,5.00
2019-03-25T00:56:45.217Z,4.77
2019-03-25T00:59:13.789Z,4.10
2019-03-25T01:01:42.362Z,4.20
2019-03-25T01:04:11.100Z,4.50
2019-03-25T01:06:39.662Z,3.37
2019-03-25T01:09:08.310Z,4.00
2019-03-25T01:11:48.416Z,4.00
2019-03-25T01:14:07.234Z,4.73
2019-03-25T01:16:35.802Z,3.90
2019-03-25T01:19:04.416Z,4.30
2019-03-25T01:21:32.978Z,3.97
2019-03-25T01:24:01.554Z,4.00
2019-03-25T01:26:30.148Z,4.00
2019-03-25T01:28:58.725Z,4.37
2019-03-25T01:31:27.322Z,3.90
2019-03-25T01:33:56.032Z,4.77
2019-03-25T01:36:24.595Z,3.80
2019-03-25T01:38:53.169Z,4.17
2019-03-25T01:41:21.761Z,3.87
2019-03-25T01:43:50.338Z,4.20
2019-03-25T01:46:18.911Z,3.93
2019-03-25T01:48:47.513Z,5.00
2019-03-25T01:51:16.091Z,4.43
2019-03-25T01:53:44.661Z,5.60
2019-03-25T01:56:13.265Z,4.10
2019-03-25T01:58:41.844Z,4.80
2019-03-25T02:01:10.426Z,4.77
2019-03-25T02:03:39.025Z,4.10
2019-03-25T02:06:07.879Z,4.33
2019-03-25T02:08:36.456Z,4.03
2019-03-25T02:11:05.313Z,5.60
2019-03-25T02:13:36.898Z,4.83
2019-03-25T02:16:05.479Z,5.33
2019-03-25T02:18:34.085Z,4.07
2019-03-25T02:21:04.334Z,4.03
2019-03-25T02:23:32.903Z,4.00
2019-03-25T02:26:01.535Z,4.70
2019-03-25T02:28:30.097Z,4.10
2019-03-25T02:30:58.673Z,4.27
2019-03-25T02:33:27.471Z,4.70
2019-03-25T02:35:56.139Z,4.20
2019-03-25T02:38:24.706Z,4.43
2019-03-25T02:40:53.313Z,4.03
2019-03-25T02:43:21.875Z,4.17
2019-03-25T02:45:50.458Z,3.60
2019-03-25T02:48:19.066Z,4.03
2019-03-25T02:50:47.786Z,3.67
2019-03-25T02:53:16.358Z,4.60
2019-03-25T02:55:44.953Z,4.40
2019-03-25T02:58:13.520Z,4.37
2019-03-25T03:00:42.098Z,4.93
2019-03-25T03:03:10.685Z,4.60
2019-03-25T03:05:39.273Z,3.93
2019-03-25T03:08:08.660Z,4.43
2019-03-25T03:10:37.232Z,4.10
2019-03-25T03:13:05.805Z,4.40
2019-03-25T03:15:34.377Z,4.43
2019-03-25T03:18:03.030Z,3.47
2019-03-25T03:20:31.599Z,4.07
2019-03-25T03:23:00.166Z,4.37
2019-03-25T03:25:28.745Z,3.60
2019-03-25T03:27:57.425Z,4.33
2019-03-25T03:30:26.006Z,4.20
2019-03-25T03:32:54.656Z,3.93
2019-03-25T03:35:23.275Z,4.50
2019-03-25T03:37:51.907Z,3.17
2019-03-25T03:40:20.768Z,4.67
2019-03-25T03:42:49.572Z,3.73
2019-03-25T03:45:18.217Z,4.90
2019-03-25T03:47:46.815Z,4.00
2019-03-25T03:50:18.566Z,3.87
2019-03-25T03:52:47.152Z,4.47
2019-03-25T03:55:15.745Z,4.40
2019-03-25T03:57:45.054Z,4.40
2019-03-25T04:00:28.559Z,3.83
2019-03-25T04:02:57.153Z,5.40
2019-03-25T04:05:25.798Z,4.13
2019-03-25T04:07:54.854Z,4.00
2019-03-25T04:10:23.414Z,5.10
2019-03-25T04:12:52.108Z,4.70
2019-03-25T04:15:28.612Z,4.30
2019-03-25T04:17:58.001Z,4.80
2019-03-25T04:20:28.078Z,5.07
2019-03-25T04:22:56.920Z,3.97
2019-03-25T04:25:25.477Z,4.20
2019-03-25T04:27:54.211Z,3.83
2019-03-25T04:30:22.952Z,4.70
2019-03-25T04:32:51.518Z,5.30
2019-03-25T04:35:20.097Z,3.80
2019-03-25T04:37:49.010Z,4.80
2019-03-25T04:40:17.590Z,4.50
2019-03-25T04:42:46.310Z,4.63
2019-03-25T04:45:15.171Z,4.20
2019-03-25T04:47:43.754Z,4.10
2019-03-25T04:50:12.405Z,4.50
2019-03-25T04:52:40.997Z,4.57
2019-03-25T04:55:09.728Z,4.87
2019-03-25T04:57:38.566Z,4.60
2019-03-25T05:00:08.799Z,3.93
2019-03-25T05:02:37.390Z,5.07
2019-03-25T05:05:09.087Z,4.10
2019-03-25T05:07:37.705Z,4.27
2019-03-25T05:10:07.310Z,4.50
2019-03-25T05:12:35.879Z,4.73
2019-03-25T05:15:05.982Z,5.07
2019-03-25T05:17:34.570Z,4.33
2019-03-25T05:20:03.501Z,4.90
2019-03-25T05:22:32.231Z,5.83
2019-03-25T05:25:00.886Z,5.03
2019-03-25T05:27:29.453Z,5.13
2019-03-25T05:29:58.041Z,5.50
2019-03-25T05:32:26.620Z,4.67
2019-03-25T05:34:55.190Z,4.40
2019-03-25T05:37:23.943Z,4.33
2019-03-25T05:39:52.536Z,4.23
2019-03-25T05:42:21.137Z,5.10
2019-03-25T05:44:49.758Z,5.33
2019-03-25T05:47:18.349Z,5.00
2019-03-25T05:49:46.924Z,5.03
2019-03-25T05:52:16.037Z,4.67
2019-03-25T05:54:44.614Z,5.40
2019-03-25T05:57:13.204Z,6.03
2019-03-25T05:59:41.786Z,5.10
2019-03-25T06:02:10.392Z,5.00
2019-03-25T06:04:39.043Z,6.00
2019-03-25T06:07:07.675Z,5.27
2019-03-25T06:09:36.251Z,5.20
2019-03-25T06:12:04.830Z,7.37
2019-03-25T06:14:33.413Z,7.50
2019-03-25T06:17:01.987Z,5.33
2019-03-25T06:19:30.566Z,6.10
2019-03-25T06:21:59.310Z,6.70
2019-03-25T06:24:28.067Z,6.23
2019-03-25T06:26:58.214Z,6.70
2019-03-25T06:29:26.857Z,5.97
2019-03-25T06:31:55.463Z,5.87
2019-03-25T06:34:24.108Z,5.33
2019-03-25T06:36:52.701Z,5.60
2019-03-25T06:39:21.278Z,4.80
2019-03-25T06:41:49.841Z,5.57
2019-03-25T06:44:18.867Z,5.47
2019-03-25T06:46:47.542Z,4.97
2019-03-25T06:49:16.129Z,5.20
2019-03-25T06:51:45.289Z,5.60
2019-03-25T06:54:13.971Z,5.43
2019-03-25T06:56:42.549Z,5.10
2019-03-25T06:59:11.142Z,5.43
2019-03-25T07:01:39.725Z,5.03
2019-03-25T07:04:08.290Z,5.47
2019-03-25T07:06:37.054Z,4.87
2019-03-25T07:09:07.269Z,5.20
2019-03-25T07:11:36.106Z,5.30
2019-03-25T07:14:04.989Z,5.27
2019-03-25T07:16:33.554Z,4.83
2019-03-25T07:19:02.190Z,4.97
2019-03-25T07:21:31.027Z,5.67
2019-03-25T07:23:59.599Z,5.90
2019-03-25T07:26:28.171Z,5.73
2019-03-25T07:28:56.983Z,5.00
2019-03-25T07:31:25.553Z,5.60
2019-03-25T07:33:54.125Z,6.17
2019-03-25T07:36:22.730Z,5.77
2019-03-25T07:38:51.303Z,5.70
2019-03-25T07:41:19.957Z,5.57
2019-03-25T07:43:48.545Z,5.77
2019-03-25T07:46:17.172Z,6.00
2019-03-25T07:48:45.898Z,5.67
2019-03-25T07:51:14.629Z,5.73
2019-03-25T07:53:43.213Z,5.33
2019-03-25T07:56:11.791Z,5.00
2019-03-25T07:58:41.485Z,4.70
2019-03-25T08:01:10.180Z,4.97
2019-03-25T08:03:38.992Z,5.57
2019-03-25T08:06:07.665Z,5.30
2019-03-25T08:08:36.265Z,3.93
2019-03-25T08:11:05.219Z,4.80
2019-03-25T08:13:33.943Z,4.80
2019-03-25T08:16:03.523Z,4.20
2019-03-25T08:18:32.227Z,4.57
2019-03-25T08:21:00.810Z,5.07
2019-03-25T08:23:29.395Z,4.70
2019-03-25T08:25:58.023Z,5.90
2019-03-25T08:28:26.858Z,5.53
2019-03-25T08:30:55.453Z,5.00
2019-03-25T08:33:24.121Z,4.03
2019-03-25T08:35:52.818Z,4.03
2019-03-25T08:38:21.530Z,4.73
2019-03-25T08:40:50.408Z,4.50
2019-03-25T08:43:18.985Z,4.00
2019-03-25T08:45:47.554Z,4.00
2019-03-25T08:48:16.217Z,4.83
2019-03-25T08:50:44.780Z,3.00
2019-03-25T08:53:13.352Z,3.60
2019-03-25T08:55:41.999Z,6.37
2019-03-25T08:58:12.199Z,7.00
2019-03-25T09:00:40.878Z,3.60
2019-03-25T09:03:09.441Z,4.23
2019-03-25T09:05:38.000Z,4.57
2019-03-25T09:08:06.591Z,3.40
2019-03-25T09:10:35.226Z,3.53
2019-03-25T09:13:03.816Z,3.77
2019-03-25T09:15:32.384Z,4.00
2019-03-25T09:18:00.959Z,3.80
2019-03-25T09:20:29.563Z,3.77
2019-03-25T09:22:58.120Z,3.10
2019-03-25T09:25:27.058Z,3.40
2019-03-25T09:27:55.644Z,3.83
2019-03-25T09:30:52.796Z,3.00
2019-03-25T09:33:22.010Z,2.77
2019-03-25T09:35:50.651Z,2.80
2019-03-25T09:38:19.280Z,3.30
2019-03-25T09:40:47.852Z,2.77
2019-03-25T09:43:16.439Z,3.00
2019-03-25T09:45:44.993Z,2.90
2019-03-25T09:48:13.560Z,2.50
2019-03-25T09:50:42.148Z,2.20
2019-03-25T09:53:10.715Z,2.20
2019-03-25T09:55:39.533Z,2.40
2019-03-25T09:58:08.101Z,2.53
2019-03-25T10:00:36.686Z,3.67
2019-03-25T10:03:05.260Z,4.00
2019-03-25T10:05:33.885Z,2.00
2019-03-25T10:08:02.552Z,2.23
2019-03-25T10:10:31.117Z,2.23
2019-03-25T10:12:59.701Z,2.53
2019-03-25T10:15:28.351Z,2.30
2019-03-25T10:17:56.914Z,2.80
2019-03-25T10:20:25.494Z,2.40
2019-03-25T10:22:54.054Z,2.83
2019-03-25T10:25:22.608Z,2.40
2019-03-25T10:27:51.187Z,2.50
2019-03-25T10:30:20.794Z,2.07
2019-03-25T10:32:49.528Z,2.70
2019-03-25T10:35:18.208Z,2.70
2019-03-25T10:37:46.787Z,3.37
2019-03-25T10:40:16.987Z,2.80
2019-03-25T10:42:45.546Z,3.87
2019-03-25T10:45:15.749Z,2.50
2019-03-25T10:47:44.308Z,2.40
2019-03-25T10:50:13.312Z,2.13
2019-03-25T10:52:41.893Z,2.37
2019-03-25T10:55:10.807Z,2.67
2019-03-25T10:57:39.385Z,2.37
2019-03-25T11:00:09.560Z,2.53
2019-03-25T11:02:38.358Z,1.90
2019-03-25T11:05:07.780Z,4.70
2019-03-25T11:07:36.503Z,4.00
2019-03-25T11:10:09.570Z,2.60
2019-03-25T11:12:38.132Z,2.43
2019-03-25T11:15:08.708Z,2.00
2019-03-25T11:17:37.579Z,2.10
2019-03-25T11:20:10.074Z,2.50
2019-03-25T11:22:38.664Z,1.97
2019-03-25T11:25:08.080Z,2.10
2019-03-25T11:27:36.724Z,1.70
2019-03-25T11:30:08.253Z,2.03
2019-03-25T11:32:36.799Z,1.40
2019-03-25T11:35:10.104Z,1.87
2019-03-25T11:37:38.840Z,1.40
2019-03-25T11:40:08.553Z,1.20
2019-03-25T11:42:37.130Z,0.90
2019-03-25T11:45:08.773Z,1.70
2019-03-25T11:47:37.455Z,1.60
2019-03-25T11:50:08.074Z,1.40
2019-03-25T11:52:36.644Z,1.67
2019-03-25T11:55:07.358Z,1.90
2019-03-25T11:57:35.916Z,1.63
2019-03-25T12:00:09.561Z,1.50
2019-03-25T12:02:38.121Z,2.47
2019-03-25T12:05:08.689Z,1.80
2019-03-25T12:07:37.393Z,1.70
2019-03-25T12:10:07.284Z,2.17
2019-03-25T12:12:35.988Z,1.50
2019-03-25T12:15:07.469Z,1.63
2019-03-25T12:17:36.049Z,1.43
2019-03-25T12:20:06.858Z,1.47
2019-03-25T12:22:35.484Z,1.63
2019-03-25T12:25:05.860Z,1.63
2019-03-25T12:27:34.726Z,1.73
2019-03-25T12:30:04.845Z,1.47
2019-03-25T12:32:33.418Z,1.30
2019-03-25T12:35:02.117Z,1.30
2019-03-25T12:37:30.936Z,1.00
2019-03-25T12:39:59.500Z,1.30
2019-03-25T12:42:28.109Z,1.00
2019-03-25T12:44:56.675Z,0.90
2019-03-25T12:47:25.237Z,1.20
2019-03-25T12:49:53.960Z,1.00
2019-03-25T12:52:22.532Z,2.20
2019-03-25T12:54:51.113Z,1.20
2019-03-25T12:57:19.688Z,1.20
2019-03-25T12:59:48.247Z,1.30
2019-03-25T13:02:16.848Z,1.00
2019-03-25T13:04:45.412Z,1.30
2019-03-25T13:07:14.022Z,1.03
2019-03-25T13:09:42.606Z,1.10
2019-03-25T13:12:11.171Z,1.50
2019-03-25T13:14:39.748Z,1.30
2019-03-25T13:17:08.311Z,1.17
2019-03-25T13:19:36.871Z,3.07
2019-03-25T13:22:05.461Z,6.33
2019-03-25T13:24:34.007Z,2.00
2019-03-25T13:27:02.591Z,1.60
2019-03-25T13:29:31.155Z,1.30
2019-03-25T13:31:59.719Z,1.80
2019-03-25T13:34:28.303Z,1.10
2019-03-25T13:36:56.856Z,1.67
2019-03-25T13:39:25.434Z,1.43
2019-03-25T13:41:53.995Z,1.33
2019-03-25T13:44:22.557Z,1.50
2019-03-25T13:46:51.185Z,1.20
2019-03-25T13:49:19.739Z,1.47
2019-03-25T13:51:48.328Z,1.60
2019-03-25T13:54:16.893Z,1.10
2019-03-25T13:56:45.447Z,1.30
2019-03-25T13:59:14.017Z,1.30
2019-03-25T14:01:42.593Z,1.27
2019-03-25T14:04:11.244Z,1.60
2019-03-25T14:06:39.795Z,1.70
2019-03-25T14:09:09.894Z,1.20
2019-03-25T14:11:38.476Z,1.30
2019-03-25T14:14:07.036Z,1.00
2019-03-25T14:16:35.732Z,1.30
2019-03-25T14:19:04.288Z,1.37
2019-03-25T14:21:32.848Z,1.57
2019-03-25T14:24:01.446Z,1.70
2019-03-25T14:26:29.987Z,2.13
2019-03-25T14:28:58.593Z,2.40
2019-03-25T14:31:27.135Z,3.23
2019-03-25T14:33:55.718Z,3.90
2019-03-25T14:36:24.272Z,2.10
2019-03-25T14:38:52.845Z,2.60
2019-03-25T14:41:21.833Z,2.30
2019-03-25T14:43:50.388Z,2.80
2019-03-25T14:46:18.963Z,2.30
2019-03-25T14:48:47.543Z,1.80
2019-03-25T14:51:16.111Z,1.70
2019-03-25T14:53:45.582Z,2.13
2019-03-25T14:56:14.229Z,2.03
2019-03-25T14:58:42.790Z,4.57
2019-03-25T15:01:11.352Z,1.77
2019-03-25T15:03:39.915Z,1.80
2019-03-25T15:06:08.491Z,1.70
2019-03-25T15:08:37.048Z,3.20
2019-03-25T15:11:05.676Z,1.60
2019-03-25T15:13:34.385Z,2.27
2019-03-25T15:16:03.059Z,2.73
2019-03-25T15:18:32.051Z,3.03
2019-03-25T15:21:00.623Z,2.67
2019-03-25T15:23:29.179Z,1.30
2019-03-25T15:25:57.745Z,1.97
2019-03-25T15:28:26.298Z,1.80
2019-03-25T15:30:54.980Z,1.40
2019-03-25T15:33:23.534Z,2.73
2019-03-25T15:35:52.423Z,1.77
2019-03-25T15:38:20.983Z,2.33
2019-03-25T15:40:49.553Z,1.97
2019-03-25T15:43:18.620Z,1.87
2019-03-25T15:45:47.180Z,1.10
2019-03-25T15:48:15.732Z,1.53
2019-03-25T15:50:44.307Z,1.60
2019-03-25T15:53:12.872Z,1.83
2019-03-25T15:55:41.839Z,1.90
2019-03-25T15:58:10.688Z,2.03
2019-03-25T16:00:47.437Z,1.97
2019-03-25T16:03:09.714Z,2.10
2019-03-25T16:05:38.277Z,1.37
2019-03-25T16:08:06.859Z,1.67
2019-03-25T16:10:35.412Z,1.80
2019-03-25T16:13:04.082Z,2.27
2019-03-25T16:15:40.788Z,1.90
2019-03-25T16:18:09.735Z,2.10
2019-03-25T16:20:38.593Z,1.30
2019-03-25T16:23:07.487Z,1.63
2019-03-25T16:25:36.073Z,1.10
2019-03-25T16:28:04.634Z,1.80
2019-03-25T16:30:33.201Z,1.63
2019-03-25T16:33:01.780Z,16.20
2019-03-25T16:35:30.353Z,3.60
2019-03-25T16:37:58.977Z,3.20
2019-03-25T16:40:27.569Z,2.50
2019-03-25T16:42:56.142Z,2.73
2019-03-25T16:45:24.716Z,3.67
2019-03-25T16:47:53.274Z,3.13
2019-03-25T16:50:21.823Z,2.07
2019-03-25T16:52:50.407Z,2.00
2019-03-25T16:55:18.964Z,2.17
2019-03-25T16:57:47.532Z,2.57
2019-03-25T17:00:26.906Z,4.60
2019-03-25T17:02:46.403Z,1.97
2019-03-25T17:05:14.971Z,3.10
2019-03-25T17:07:43.552Z,2.17
2019-03-25T17:10:12.199Z,3.07
2019-03-25T17:12:40.763Z,2.53
2019-03-25T17:15:09.572Z,3.00
2019-03-25T17:17:38.161Z,3.90
2019-03-25T17:20:07.100Z,2.67
2019-03-25T17:22:35.887Z,3.07
2019-03-25T17:25:06.296Z,2.40
2019-03-25T17:27:34.925Z,3.10
2019-03-25T17:30:07.761Z,2.93
2019-03-25T17:32:36.319Z,2.80
2019-03-25T17:35:07.086Z,3.67
2019-03-25T17:37:36.097Z,2.47
2019-03-25T17:40:07.181Z,2.90
2019-03-25T17:42:35.834Z,3.20
2019-03-25T17:45:07.580Z,2.70
2019-03-25T17:47:36.146Z,3.10
2019-03-25T17:50:06.924Z,2.90
2019-03-25T17:52:35.590Z,2.50
2019-03-25T17:55:05.887Z,2.90
2019-03-25T17:57:34.447Z,2.67
2019-03-25T18:00:05.146Z,2.73
2019-03-25T18:02:33.739Z,2.60
2019-03-25T18:05:09.454Z,3.33
2019-03-25T18:07:38.183Z,2.53
2019-03-25T18:10:08.080Z,3.13
2019-03-25T18:12:39.130Z,3.13
2019-03-25T18:15:10.749Z,2.50
2019-03-25T18:17:39.331Z,2.90
2019-03-25T18:20:17.991Z,2.00
2019-03-25T18:22:40.222Z,2.77
2019-03-25T18:25:09.245Z,2.47
2019-03-25T18:27:37.836Z,2.67
2019-03-25T18:30:07.746Z,2.57
2019-03-25T18:32:36.311Z,1.97
2019-03-25T18:35:06.190Z,2.73
2019-03-25T18:37:34.764Z,3.17
2019-03-25T18:40:03.483Z,4.00
2019-03-25T18:42:32.248Z,2.30
2019-03-25T18:45:00.806Z,3.73
2019-03-25T18:47:29.397Z,2.63
2019-03-25T18:49:58.510Z,3.47
2019-03-25T18:52:27.060Z,2.60
2019-03-25T18:54:55.690Z,2.47
2019-03-25T18:57:24.461Z,1.97
2019-03-25T18:59:53.020Z,2.60
2019-03-25T19:02:21.578Z,2.73
2019-03-25T19:04:50.332Z,2.80
2019-03-25T19:07:18.996Z,2.40
2019-03-25T19:09:47.702Z,2.67
2019-03-25T19:12:16.296Z,2.20
2019-03-25T19:14:44.836Z,2.53
2019-03-25T19:17:13.400Z,2.70
2019-03-25T19:19:42.004Z,2.20
2019-03-25T19:22:12.809Z,1.67
2019-03-25T19:24:41.027Z,1.63
2019-03-25T19:27:09.690Z,2.43
2019-03-25T19:29:38.269Z,2.03
2019-03-25T19:32:07.275Z,2.40
2019-03-25T19:34:35.937Z,2.50
2019-03-25T19:37:04.485Z,2.83
2019-03-25T19:39:33.035Z,1.83
2019-03-25T19:42:01.967Z,2.10
2019-03-25T19:44:30.582Z,2.37
2019-03-25T19:46:59.176Z,2.70
2019-03-25T19:49:27.874Z,2.63
2019-03-25T19:51:56.470Z,2.47
2019-03-25T19:54:25.028Z,2.47
2019-03-25T19:56:53.800Z,2.57
2019-03-25T19:59:22.393Z,3.30
2019-03-25T20:01:50.984Z,2.63
2019-03-25T20:04:19.742Z,2.80
2019-03-25T20:06:50.159Z,3.20
2019-03-25T20:09:18.759Z,2.40
2019-03-25T20:11:47.347Z,2.47
2019-03-25T20:14:16.282Z,1.50
2019-03-25T20:16:45.157Z,2.33
2019-03-25T20:19:14.113Z,2.60
2019-03-25T20:21:42.787Z,2.37
2019-03-25T20:24:11.391Z,1.80
2019-03-25T20:26:40.076Z,2.90
2019-03-25T20:29:08.667Z,2.33
2019-03-25T20:31:37.309Z,2.90
2019-03-25T20:34:11.099Z,3.00
2019-03-25T20:36:36.239Z,2.77
2019-03-25T20:39:07.871Z,2.03
2019-03-25T20:41:36.689Z,1.87
2019-03-25T20:44:05.667Z,2.80
2019-03-25T20:46:34.225Z,4.20
2019-03-25T20:49:02.972Z,2.63
2019-03-25T20:51:31.569Z,3.87
2019-03-25T20:54:00.140Z,4.23
2019-03-25T20:56:28.738Z,3.43
2019-03-25T20:58:57.281Z,2.63
2019-03-25T21:01:26.014Z,4.37
2019-03-25T21:03:54.758Z,2.60
2019-03-25T21:06:23.350Z,2.80
2019-03-25T21:08:51.995Z,3.27
2019-03-25T21:11:20.559Z,3.37
2019-03-25T21:13:49.259Z,2.83
2019-03-25T21:16:17.843Z,3.50
2019-03-25T21:18:46.471Z,3.03
2019-03-25T21:21:15.138Z,2.83
2019-03-25T21:23:43.740Z,2.30
2019-03-25T21:26:12.550Z,2.67
2019-03-25T21:28:41.135Z,3.40
2019-03-25T21:31:09.684Z,3.00
2019-03-25T21:33:38.278Z,4.00
2019-03-25T21:36:06.904Z,18.07
2019-03-25T21:38:35.593Z,7.43
2019-03-25T21:41:04.426Z,3.37
2019-03-25T21:43:32.985Z,3.20
2019-03-25T21:46:01.923Z,3.23
2019-03-25T21:48:30.565Z,3.27
2019-03-25T21:50:59.160Z,2.77
2019-03-25T21:53:27.797Z,4.37
2019-03-25T21:55:56.481Z,9.20
2019-03-25T21:58:25.111Z,4.00
2019-03-25T22:00:53.793Z,3.60
2019-03-25T22:03:22.367Z,2.90
2019-03-25T22:05:50.932Z,3.20
2019-03-25T22:08:19.487Z,3.00
2019-03-25T22:10:48.060Z,3.70
2019-03-25T22:13:16.699Z,3.50
2019-03-25T22:15:45.296Z,3.10
2019-03-25T22:18:13.876Z,4.50
2019-03-25T22:20:44.080Z,3.20
2019-03-25T22:23:12.679Z,3.90
2019-03-25T22:25:41.300Z,4.00
2019-03-25T22:28:09.895Z,3.37
2019-03-25T22:30:38.452Z,3.73
2019-03-25T22:33:07.032Z,4.27
2019-03-25T22:35:35.608Z,4.33
2019-03-25T22:38:04.346Z,4.33
2019-03-25T22:40:33.054Z,4.20
2019-03-25T22:43:01.619Z,3.63
2019-03-25T22:45:30.828Z,4.43
2019-03-25T22:47:59.539Z,3.83
2019-03-25T22:50:29.842Z,3.50
2019-03-25T22:52:58.548Z,4.03
2019-03-25T22:55:27.454Z,4.60
2019-03-25T22:57:56.088Z,3.90
2019-03-25T23:00:26.756Z,3.50
2019-03-25T23:02:55.353Z,4.00
2019-03-25T23:05:23.945Z,3.50
2019-03-25T23:07:52.538Z,3.73
2019-03-25T23:10:21.224Z,4.50
2019-03-25T23:12:49.803Z,4.70
2019-03-25T23:15:18.374Z,4.37
2019-03-25T23:17:47.385Z,4.33
2019-03-25T23:20:15.958Z,4.20
2019-03-25T23:22:44.539Z,4.37
2019-03-25T23:25:13.260Z,4.53
2019-03-25T23:27:41.844Z,3.57
2019-03-25T23:30:10.736Z,3.60
2019-03-25T23:32:39.343Z,5.40
2019-03-25T23:35:08.285Z,4.20
2019-03-25T23:37:36.876Z,4.57
2019-03-25T23:40:06.584Z,6.07
2019-03-25T23:42:35.153Z,4.57
2019-03-25T23:45:04.392Z,4.93
2019-03-25T23:47:33.073Z,4.90
2019-03-25T23:50:01.723Z,5.63
2019-03-25T23:52:30.300Z,5.93
2019-03-25T23:54:58.885Z,6.53
2019-03-25T23:57:27.441Z,5.73
2019-03-25T23:59:56.016Z,6.20
